Time;durP1;ratioP1;P1;durP2;ratioP2;P2;SDS_P1;SDS_P2;PMS_P1;PMS_P2;Temp;Humidity;BMP_temperature;BMP_pressure;BME280_temperature;BME280_humidity;BME280_pressure;Samples;Min_cycle;Max_cycle;Signal;HPM_P1;HPM_P2
2022/07/19 00:01:59;;;;;;;0.20;0.10;;;;;;;;;;6099968;23;20009;-90
2022/07/19 00:04:25;;;;;;;0.20;0.10;;;;;;;;;;6124060;23;20013;-90
2022/07/19 00:06:51;;;;;;;0.20;0.10;;;;;;;;;;6149526;23;20214;-90
2022/07/19 00:09:17;;;;;;;0.20;0.10;;;;;;;;;;6149506;23;20014;-91
2022/07/19 00:11:43;;;;;;;0.20;0.10;;;;;;;;;;6149647;23;20021;-90
2022/07/19 00:14:09;;;;;;;0.20;0.10;;;;;;;;;;6123698;23;20017;-91
2022/07/19 00:16:36;;;;;;;0.20;0.10;;;;;;;;;;6100098;23;20097;-91
2022/07/19 00:19:02;;;;;;;0.20;0.10;;;;;;;;;;6098998;23;20091;-91
2022/07/19 00:21:30;;;;;;;0.20;0.10;;;;;;;;;;6100316;23;20009;-91
2022/07/19 00:23:56;;;;;;;0.20;0.10;;;;;;;;;;6124558;23;20018;-90
2022/07/19 00:26:22;;;;;;;0.20;0.10;;;;;;;;;;6099932;23;20096;-90
2022/07/19 00:28:49;;;;;;;0.20;0.10;;;;;;;;;;6098731;23;20021;-90
2022/07/19 00:31:15;;;;;;;0.30;0.30;;;;;;;;;;6098660;23;20378;-91
2022/07/19 00:33:41;;;;;;;0.20;0.10;;;;;;;;;;6124753;23;20022;-90
2022/07/19 00:36:07;;;;;;;0.20;0.10;;;;;;;;;;6098335;23;20326;-89
2022/07/19 00:38:33;;;;;;;0.20;0.10;;;;;;;;;;6099655;23;20013;-90
2022/07/19 00:41:01;;;;;;;0.20;0.10;;;;;;;;;;6100100;23;20597;-91
2022/07/19 00:43:27;;;;;;;0.20;0.10;;;;;;;;;;6123733;23;20110;-91
2022/07/19 00:45:53;;;;;;;0.20;0.10;;;;;;;;;;6100949;23;20013;-90
2022/07/19 00:48:20;;;;;;;0.20;0.17;;;;;;;;;;6100559;23;20056;-90
2022/07/19 00:50:46;;;;;;;0.20;0.10;;;;;;;;;;6124831;23;20047;-91
2022/07/19 00:53:13;;;;;;;0.20;0.10;;;;;;;;;;6124180;23;20017;-90
2022/07/19 00:55:41;;;;;;;0.20;0.10;;;;;;;;;;6124559;23;20014;-91
2022/07/19 00:58:08;;;;;;;0.35;0.28;;;;;;;;;;6148855;23;20500;-90
2022/07/19 01:00:35;;;;;;;0.20;0.10;;;;;;;;;;6123905;23;20020;-91
2022/07/19 01:03:01;;;;;;;0.20;0.10;;;;;;;;;;6100048;23;20025;-90
2022/07/19 01:05:28;;;;;;;0.20;0.10;;;;;;;;;;6099614;23;20013;-91
2022/07/19 01:07:54;;;;;;;0.20;0.10;;;;;;;;;;6124858;23;20071;-91
2022/07/19 01:10:20;;;;;;;0.20;0.10;;;;;;;;;;6099775;23;20104;-90
2022/07/19 01:12:46;;;;;;;0.20;0.10;;;;;;;;;;6124353;23;20018;-91
2022/07/19 01:15:17;;;;;;;0.20;0.10;;;;;;;;;;6125357;23;20009;-90
2022/07/19 01:17:43;;;;;;;0.20;0.10;;;;;;;;;;6125264;23;20052;-90
2022/07/19 01:20:10;;;;;;;0.20;0.10;;;;;;;;;;6124406;23;20020;-90
2022/07/19 01:22:36;;;;;;;0.20;0.10;;;;;;;;;;6124396;23;20016;-90
2022/07/19 01:25:02;;;;;;;0.20;0.10;;;;;;;;;;6100247;23;20013;-91
2022/07/19 01:27:28;;;;;;;0.20;0.10;;;;;;;;;;6100337;23;20379;-91
2022/07/19 01:29:54;;;;;;;0.20;0.10;;;;;;;;;;6122729;23;20017;-91
2022/07/19 01:32:20;;;;;;;0.20;0.10;;;;;;;;;;6124165;23;20017;-91
2022/07/19 01:34:46;;;;;;;0.20;0.10;;;;;;;;;;6124718;23;20020;-90
2022/07/19 01:37:12;;;;;;;0.20;0.20;;;;;;;;;;6100200;23;20017;-89
2022/07/19 01:39:38;;;;;;;0.20;0.10;;;;;;;;;;6099688;23;20009;-90
2022/07/19 01:42:04;;;;;;;0.20;0.10;;;;;;;;;;6124783;23;20049;-90
2022/07/19 01:44:30;;;;;;;0.20;0.10;;;;;;;;;;6123439;23;20410;-91
2022/07/19 01:46:57;;;;;;;0.20;0.10;;;;;;;;;;6099045;23;20040;-91
2022/07/19 01:49:23;;;;;;;0.20;0.20;;;;;;;;;;6124305;23;20053;-92
2022/07/19 01:51:49;;;;;;;0.20;0.10;;;;;;;;;;6124609;23;20013;-91
2022/07/19 01:54:15;;;;;;;0.20;0.10;;;;;;;;;;6100111;23;20567;-91
2022/07/19 01:56:45;;;;;;;0.20;0.10;;;;;;;;;;6100775;23;20025;-90
2022/07/19 01:59:11;;;;;;;0.20;0.15;;;;;;;;;;6124498;23;20021;-91
2022/07/19 02:01:37;;;;;;;0.20;0.10;;;;;;;;;;6100926;23;20013;-90
2022/07/19 02:04:03;;;;;;;0.20;0.10;;;;;;;;;;6124370;23;20412;-91
2022/07/19 02:06:29;;;;;;;0.20;0.17;;;;;;;;;;6125667;23;20020;-91
2022/07/19 02:08:55;;;;;;;0.20;0.10;;;;;;;;;;6100784;23;20028;-90
2022/07/19 02:11:36;;;;;;;0.20;0.10;;;;;;;;;;6101017;23;20362;-90
2022/07/19 02:14:03;;;;;;;0.20;0.10;;;;;;;;;;6124419;23;20025;-91
2022/07/19 02:16:29;;;;;;;0.20;0.10;;;;;;;;;;6125312;23;20057;-90
2022/07/19 02:18:56;;;;;;;0.20;0.10;;;;;;;;;;6125142;23;20041;-91
2022/07/19 02:21:22;;;;;;;0.20;0.10;;;;;;;;;;6125137;23;20423;-90
2022/07/19 02:23:48;;;;;;;0.30;0.20;;;;;;;;;;6100289;23;20044;-90
2022/07/19 02:26:14;;;;;;;0.20;0.10;;;;;;;;;;6124340;23;20013;-92
2022/07/19 02:28:43;;;;;;;0.20;0.10;;;;;;;;;;6101431;23;20450;-91
2022/07/19 02:31:09;;;;;;;0.20;0.10;;;;;;;;;;6101258;23;20210;-91
2022/07/19 02:33:35;;;;;;;0.20;0.10;;;;;;;;;;6100127;23;20018;-90
2022/07/19 02:36:01;;;;;;;0.20;0.10;;;;;;;;;;6101281;23;20021;-91
2022/07/19 02:38:27;;;;;;;0.20;0.10;;;;;;;;;;6101821;23;20028;-91
2022/07/19 02:40:53;;;;;;;0.20;0.17;;;;;;;;;;6101551;23;20009;-89
2022/07/19 02:43:19;;;;;;;0.20;0.10;;;;;;;;;;6100830;23;20014;-91
2022/07/19 02:45:46;;;;;;;0.20;0.10;;;;;;;;;;6101550;23;20072;-91
2022/07/19 02:48:12;;;;;;;0.20;0.20;;;;;;;;;;6101365;23;20053;-91
2022/07/19 02:50:38;;;;;;;0.20;0.15;;;;;;;;;;6101208;23;20013;-91
2022/07/19 02:53:04;;;;;;;0.20;0.10;;;;;;;;;;6125512;23;20546;-91
2022/07/19 02:55:31;;;;;;;0.20;0.10;;;;;;;;;;6125582;23;20732;-91
2022/07/19 02:57:57;;;;;;;0.20;0.10;;;;;;;;;;6101881;23;20063;-91
2022/07/19 03:00:23;;;;;;;0.20;0.10;;;;;;;;;;6100364;23;20148;-91
2022/07/19 03:02:49;;;;;;;0.20;0.10;;;;;;;;;;6102447;23;20013;-91
2022/07/19 03:05:15;;;;;;;0.20;0.10;;;;;;;;;;6101004;23;20554;-91
2022/07/19 03:07:41;;;;;;;0.20;0.10;;;;;;;;;;6102236;23;20053;-91
2022/07/19 03:10:08;;;;;;;0.20;0.20;;;;;;;;;;6100315;23;20073;-91
2022/07/19 03:12:34;;;;;;;0.20;0.10;;;;;;;;;;6120172;23;20024;-90
2022/07/19 03:15:00;;;;;;;0.20;0.10;;;;;;;;;;6073262;23;20018;-91
2022/07/19 03:17:26;;;;;;;0.20;0.10;;;;;;;;;;6072485;23;20018;-91
2022/07/19 03:19:52;;;;;;;0.20;0.10;;;;;;;;;;6072025;23;20089;-91
2022/07/19 03:22:18;;;;;;;0.20;0.10;;;;;;;;;;6071776;23;20021;-91
2022/07/19 03:24:44;;;;;;;0.20;0.10;;;;;;;;;;6071949;23;20010;-91
2022/07/19 03:27:11;;;;;;;0.20;0.10;;;;;;;;;;6047907;23;20022;-91
2022/07/19 03:29:37;;;;;;;0.20;0.10;;;;;;;;;;6073018;23;20036;-92
2022/07/19 03:32:03;;;;;;;0.20;0.10;;;;;;;;;;6072921;23;20022;-92
2022/07/19 03:34:29;;;;;;;0.20;0.10;;;;;;;;;;6049117;23;20014;-91
2022/07/19 03:36:56;;;;;;;0.20;0.10;;;;;;;;;;6048854;23;20500;-91
2022/07/19 03:39:22;;;;;;;0.20;0.10;;;;;;;;;;6050246;23;20062;-90
2022/07/19 03:41:48;;;;;;;0.20;0.10;;;;;;;;;;6048904;23;20033;-90
2022/07/19 03:44:14;;;;;;;0.20;0.10;;;;;;;;;;6047889;23;20069;-90
2022/07/19 03:46:40;;;;;;;0.20;0.10;;;;;;;;;;6049621;23;20018;-90
2022/07/19 03:49:06;;;;;;;0.20;0.10;;;;;;;;;;6072568;23;20029;-90
2022/07/19 03:51:32;;;;;;;0.20;0.10;;;;;;;;;;6047998;23;20025;-90
2022/07/19 03:53:58;;;;;;;0.40;0.10;;;;;;;;;;6049642;23;20382;-91
2022/07/19 03:56:24;;;;;;;0.20;0.10;;;;;;;;;;6073448;23;20100;-91
2022/07/19 03:58:50;;;;;;;0.20;0.13;;;;;;;;;;6049600;23;20025;-91
2022/07/19 04:01:17;;;;;;;0.20;0.20;;;;;;;;;;6048338;23;20013;-91
2022/07/19 04:03:43;;;;;;;0.20;0.10;;;;;;;;;;6096693;23;20014;-90
2022/07/19 04:06:10;;;;;;;0.20;0.10;;;;;;;;;;6049246;23;20044;-90
2022/07/19 04:08:36;;;;;;;0.20;0.10;;;;;;;;;;6072624;23;20019;-91
2022/07/19 04:11:03;;;;;;;0.20;0.10;;;;;;;;;;6073089;23;20062;-90
2022/07/19 04:16:05;;;;;;;0.20;0.10;;;;;;;;;;6159410;23;20017;-92
2022/07/19 04:18:31;;;;;;;0.20;0.10;;;;;;;;;;6115399;23;20017;-92
2022/07/19 04:21:00;;;;;;;0.20;0.10;;;;;;;;;;6114233;23;20354;-91
2022/07/19 04:23:26;;;;;;;0.20;0.10;;;;;;;;;;6115692;23;20013;-91
2022/07/19 04:25:52;;;;;;;0.20;0.10;;;;;;;;;;6082615;23;20092;-92
2022/07/19 04:28:18;;;;;;;0.20;0.10;;;;;;;;;;6105259;23;20013;-91
2022/07/19 04:30:44;;;;;;;0.20;0.17;;;;;;;;;;6106740;23;20017;-91
2022/07/19 04:33:13;;;;;;;0.20;0.10;;;;;;;;;;6106835;23;20436;-92
2022/07/19 04:35:39;;;;;;;0.20;0.10;;;;;;;;;;6099859;23;20024;-93
2022/07/19 04:38:05;;;;;;;0.20;0.10;;;;;;;;;;6102033;23;20358;-91
2022/07/19 04:40:31;;;;;;;0.40;0.40;;;;;;;;;;6098985;23;20068;-92
2022/07/19 04:42:58;;;;;;;0.20;0.10;;;;;;;;;;6097067;23;20013;-91
2022/07/19 04:45:24;;;;;;;0.20;0.10;;;;;;;;;;6094253;23;20018;-91
2022/07/19 04:47:50;;;;;;;0.20;0.10;;;;;;;;;;6073457;23;20367;-92
2022/07/19 04:50:16;;;;;;;0.20;0.10;;;;;;;;;;6096697;23;20017;-92
2022/07/19 04:52:42;;;;;;;0.20;0.10;;;;;;;;;;6100445;23;20621;-92
2022/07/19 04:55:09;;;;;;;1.65;0.30;;;;;;;;;;6107192;23;20017;-92
2022/07/19 04:57:35;;;;;;;0.20;0.10;;;;;;;;;;6102549;23;20409;-92
2022/07/19 05:00:05;;;;;;;0.20;0.10;;;;;;;;;;6101907;23;20277;-92
2022/07/19 05:02:35;;;;;;;0.20;0.10;;;;;;;;;;6100552;23;20013;-91
2022/07/19 05:05:03;;;;;;;0.20;0.10;;;;;;;;;;6107543;23;20044;-92
2022/07/19 05:07:32;;;;;;;0.20;0.10;;;;;;;;;;6112249;23;20021;-92
2022/07/19 05:10:01;;;;;;;0.20;0.10;;;;;;;;;;6110117;23;20045;-92
2022/07/19 05:12:30;;;;;;;0.20;0.10;;;;;;;;;;6107113;23;20052;-92
2022/07/19 05:14:56;;;;;;;0.20;0.10;;;;;;;;;;6107974;23;20028;-92
2022/07/19 05:17:24;;;;;;;0.20;0.10;;;;;;;;;;6080518;23;20078;-92
2022/07/19 05:19:56;;;;;;;0.20;0.10;;;;;;;;;;6099537;23;20024;-92
2022/07/19 05:22:25;;;;;;;0.20;0.10;;;;;;;;;;6076911;23;20014;-93
2022/07/19 05:24:57;;;;;;;0.20;0.10;;;;;;;;;;6099898;23;20068;-94
2022/07/19 05:27:26;;;;;;;0.20;0.10;;;;;;;;;;6098467;23;20045;-91
2022/07/19 05:29:55;;;;;;;0.20;0.20;;;;;;;;;;6122022;23;20018;-91
2022/07/19 05:32:21;;;;;;;0.40;0.20;;;;;;;;;;6111140;23;20053;-91
2022/07/19 05:34:47;;;;;;;0.20;0.10;;;;;;;;;;6074058;23;20017;-92
2022/07/19 05:37:13;;;;;;;0.20;0.10;;;;;;;;;;6078069;23;20009;-92
2022/07/19 05:39:39;;;;;;;0.20;0.10;;;;;;;;;;6100703;23;20024;-92
2022/07/19 05:42:06;;;;;;;0.20;0.10;;;;;;;;;;6103751;23;20045;-91
2022/07/19 05:44:32;;;;;;;0.20;0.10;;;;;;;;;;6095462;23;20132;-91
2022/07/19 05:46:58;;;;;;;0.20;0.10;;;;;;;;;;6099155;23;20076;-91
2022/07/19 05:49:24;;;;;;;0.20;0.10;;;;;;;;;;6076159;23;20293;-92
2022/07/19 05:51:50;;;;;;;0.20;0.10;;;;;;;;;;6098233;23;20013;-90
2022/07/19 05:54:17;;;;;;;0.38;0.38;;;;;;;;;;6098897;23;20070;-90
2022/07/19 05:56:43;;;;;;;0.20;0.10;;;;;;;;;;6094147;23;20021;-91
2022/07/19 05:59:09;;;;;;;0.20;0.10;;;;;;;;;;6071495;23;20017;-91
2022/07/19 06:01:38;;;;;;;0.20;0.10;;;;;;;;;;6095808;23;20044;-91
2022/07/19 06:04:08;;;;;;;0.20;0.10;;;;;;;;;;6097553;23;20049;-91
2022/07/19 06:06:35;;;;;;;0.20;0.10;;;;;;;;;;6072692;23;20246;-92
2022/07/19 06:09:02;;;;;;;0.20;0.10;;;;;;;;;;6102734;23;20018;-91
2022/07/19 06:11:28;;;;;;;0.43;0.20;;;;;;;;;;6103056;23;20040;-91
2022/07/19 06:13:54;;;;;;;0.20;0.10;;;;;;;;;;6105158;23;20030;-89
2022/07/19 06:16:20;;;;;;;0.20;0.10;;;;;;;;;;6111527;23;20025;-92
2022/07/19 06:18:47;;;;;;;0.20;0.10;;;;;;;;;;6123557;23;20024;-93
2022/07/19 06:21:20;;;;;;;0.20;0.10;;;;;;;;;;6091353;23;20023;-91
2022/07/19 06:23:46;;;;;;;0.20;0.10;;;;;;;;;;6117479;23;20237;-91
2022/07/19 06:26:13;;;;;;;0.20;0.15;;;;;;;;;;6114893;23;20082;-91
2022/07/19 06:28:39;;;;;;;0.20;0.10;;;;;;;;;;6111451;23;20037;-91
2022/07/19 06:31:07;;;;;;;0.20;0.10;;;;;;;;;;6115717;23;20013;-91
2022/07/19 06:33:34;;;;;;;0.20;0.10;;;;;;;;;;6108484;23;20025;-91
2022/07/19 06:36:00;;;;;;;0.20;0.10;;;;;;;;;;6082831;23;20014;-92
2022/07/19 06:38:26;;;;;;;0.20;0.10;;;;;;;;;;6084221;23;20018;-92
2022/07/19 06:40:55;;;;;;;0.20;0.10;;;;;;;;;;6092113;23;20017;-91
2022/07/19 06:43:21;;;;;;;0.20;0.10;;;;;;;;;;6090801;23;20001;-91
2022/07/19 06:45:47;;;;;;;0.20;0.10;;;;;;;;;;6095724;23;20056;-92
2022/07/19 06:48:13;;;;;;;0.20;0.10;;;;;;;;;;6111417;23;20103;-92
2022/07/19 06:50:39;;;;;;;0.20;0.10;;;;;;;;;;6076417;23;20458;-91
2022/07/19 06:53:05;;;;;;;0.20;0.10;;;;;;;;;;6104261;23;20041;-92
2022/07/19 06:55:34;;;;;;;0.20;0.10;;;;;;;;;;6104262;23;20017;-92
2022/07/19 06:58:00;;;;;;;0.20;0.20;;;;;;;;;;6104512;23;20299;-92
2022/07/19 07:00:27;;;;;;;0.20;0.10;;;;;;;;;;6075960;23;20089;-92
2022/07/19 07:02:59;;;;;;;0.20;0.10;;;;;;;;;;6112595;23;20020;-92
2022/07/19 07:05:28;;;;;;;0.20;0.10;;;;;;;;;;6108695;23;20013;-91
2022/07/19 07:07:54;;;;;;;0.20;0.10;;;;;;;;;;6102907;23;20025;-92
2022/07/19 07:10:26;;;;;;;0.20;0.10;;;;;;;;;;6101637;23;20017;-92
2022/07/19 07:12:52;;;;;;;0.20;0.15;;;;;;;;;;6099098;23;20755;-92
2022/07/19 07:15:18;;;;;;;0.20;0.10;;;;;;;;;;6078004;23;20515;-92
2022/07/19 07:17:44;;;;;;;0.20;0.10;;;;;;;;;;6099456;23;20386;-92
2022/07/19 07:20:10;;;;;;;0.20;0.10;;;;;;;;;;6095130;23;20014;-91
2022/07/19 07:22:37;;;;;;;0.20;0.10;;;;;;;;;;6112031;23;20040;-91
2022/07/19 07:25:04;;;;;;;0.20;0.10;;;;;;;;;;6105382;23;20033;-90
2022/07/19 07:27:30;;;;;;;0.20;0.10;;;;;;;;;;6101013;23;20021;-92
2022/07/19 07:29:56;;;;;;;0.20;0.10;;;;;;;;;;6104789;23;20605;-91
2022/07/19 07:32:28;;;;;;;0.20;0.10;;;;;;;;;;6100651;23;20017;-92
2022/07/19 07:35:06;;;;;;;0.20;0.10;;;;;;;;;;6107812;23;20283;-92
2022/07/19 07:37:32;;;;;;;0.20;0.10;;;;;;;;;;6097130;23;20452;-91
2022/07/19 07:39:59;;;;;;;0.20;0.10;;;;;;;;;;6107460;23;20014;-92
2022/07/19 07:42:25;;;;;;;0.20;0.10;;;;;;;;;;6076705;23;20062;-92
2022/07/19 07:44:51;;;;;;;0.20;0.10;;;;;;;;;;6077052;23;20021;-92
2022/07/19 07:47:18;;;;;;;0.20;0.10;;;;;;;;;;6103797;23;20048;-90
2022/07/19 07:49:44;;;;;;;0.20;0.10;;;;;;;;;;6098212;23;20100;-91
2022/07/19 07:52:10;;;;;;;0.20;0.10;;;;;;;;;;6071001;23;20251;-92
2022/07/19 07:54:36;;;;;;;0.20;0.10;;;;;;;;;;6070311;23;20528;-91
2022/07/19 07:57:02;;;;;;;0.20;0.10;;;;;;;;;;6070509;23;20017;-91
2022/07/19 07:59:29;;;;;;;0.20;0.10;;;;;;;;;;6072273;23;20014;-91
2022/07/19 08:01:55;;;;;;;0.20;0.10;;;;;;;;;;6090411;23;20401;-90
2022/07/19 08:04:31;;;;;;;0.20;0.10;;;;;;;;;;6069454;23;20120;-92
2022/07/19 08:07:05;;;;;;;0.20;0.10;;;;;;;;;;6095063;23;20023;-92
2022/07/19 08:09:32;;;;;;;0.20;0.10;;;;;;;;;;6093077;23;20052;-90
2022/07/19 08:12:01;;;;;;;0.20;0.10;;;;;;;;;;6093027;23;20462;-91
2022/07/19 08:14:32;;;;;;;0.20;0.10;;;;;;;;;;6096400;23;20048;-91
2022/07/19 08:20:17;;;;;;;0.20;0.10;;;;;;;;;;6152603;23;20028;-91
2022/07/19 08:22:55;;;;;;;0.52;0.20;;;;;;;;;;6104163;23;20075;-93
2022/07/19 08:25:24;;;;;;;0.20;0.10;;;;;;;;;;6084844;23;20017;-93
2022/07/19 08:28:00;;;;;;;0.20;0.10;;;;;;;;;;6104175;23;20013;-92
2022/07/19 08:30:32;;;;;;;0.20;0.10;;;;;;;;;;6101999;23;20017;-90
2022/07/19 08:33:02;;;;;;;0.20;0.10;;;;;;;;;;6097643;23;20016;-92
2022/07/19 08:35:34;;;;;;;0.20;0.10;;;;;;;;;;6095955;23;20018;-91
2022/07/19 08:38:19;;;;;;;0.20;0.10;;;;;;;;;;6116660;23;20191;-94
2022/07/19 08:40:55;;;;;;;0.30;0.15;;;;;;;;;;6100298;23;20414;-92
2022/07/19 08:43:22;;;;;;;0.20;0.10;;;;;;;;;;6104427;23;20017;-92
2022/07/19 08:46:03;;;;;;;0.20;0.10;;;;;;;;;;6103358;23;20679;-92
2022/07/19 08:48:36;;;;;;;0.20;0.10;;;;;;;;;;6077651;23;20022;-93
2022/07/19 08:51:16;;;;;;;0.20;0.20;;;;;;;;;;6101635;23;20018;-93
2022/07/19 08:54:09;;;;;;;0.20;0.10;;;;;;;;;;6083178;23;20354;-92
2022/07/19 09:00:04;;;;;;;0.20;0.10;;;;;;;;;;6092965;23;20063;-93
2022/07/19 10:21:39;;;;;;;0.20;0.10;;;;;;;;;;6236629;22;20074;-90
2022/07/19 10:27:28;;;;;;;0.20;0.10;;;;;;;;;;6241393;23;20022;-90
2022/07/19 10:30:15;;;;;;;0.20;0.10;;;;;;;;;;6210072;23;20020;-90
2022/07/19 10:32:48;;;;;;;0.20;0.10;;;;;;;;;;6210659;23;20027;-90
2022/07/19 10:35:30;;;;;;;0.20;0.10;;;;;;;;;;6212252;23;20024;-89
2022/07/19 10:37:56;;;;;;;0.20;0.10;;;;;;;;;;6212179;23;20016;-92
2022/07/19 10:43:35;;;;;;;0.20;0.10;;;;;;;;;;6164651;23;20338;-90
2022/07/19 10:46:05;;;;;;;0.28;0.20;;;;;;;;;;6210488;23;20012;-90
2022/07/19 10:48:48;;;;;;;0.20;0.10;;;;;;;;;;6210876;23;20121;-91
2022/07/19 10:51:29;;;;;;;0.20;0.10;;;;;;;;;;6208078;23;20012;-91
2022/07/19 10:54:31;;;;;;;;;;;;;;;;;;;;;
2022/07/19 10:57:35;;;;;;;0.20;0.10;;;;;;;;;;6199031;22;20039;-90
2022/07/19 11:13:45;;;;;;;0.20;0.10;;;;;;;;;;6096140;23;20040;-92
2022/07/19 11:46:27;;;;;;;0.20;0.10;;;;;;;;;;6146123;23;20019;-91
2022/07/19 11:58:25;;;;;;;0.20;0.10;;;;;;;;;;6176724;23;20119;-91
2022/07/19 12:35:48;;;;;;;0.30;0.30;;;;;;;;;;6242257;22;20028;-90
2022/07/19 12:38:36;;;;;;;0.20;0.10;;;;;;;;;;6165349;23;20099;-91
2022/07/19 14:32:28;;;;;;;0.38;0.13;;;;;;;;;;6042851;23;20035;-93
2022/07/19 14:48:22;;;;;;;0.20;0.20;;;;;;;;;;5992745;23;20031;-88
2022/07/19 15:05:01;;;;;;;0.20;0.10;;;;;;;;;;5981435;23;20159;-92
2022/07/19 15:14:01;;;;;;;0.20;0.10;;;;;;;;;;6090234;23;20026;-88
2022/07/19 15:16:53;;;;;;;0.20;0.10;;;;;;;;;;6039658;23;20018;-89
2022/07/19 15:22:30;;;;;;;0.20;0.10;;;;;;;;;;6240659;22;20034;-88
2022/07/19 15:25:38;;;;;;;0.28;0.20;;;;;;;;;;6101914;23;20557;-88
2022/07/19 15:31:58;;;;;;;0.20;0.10;;;;;;;;;;6079038;23;20027;-86
2022/07/19 15:34:45;;;;;;;0.20;0.20;;;;;;;;;;6097082;23;20024;-88
2022/07/19 15:37:23;;;;;;;0.20;0.20;;;;;;;;;;6098452;23;20104;-90
2022/07/19 15:40:13;;;;;;;0.20;0.20;;;;;;;;;;6072034;23;20236;-92
2022/07/19 15:42:50;;;;;;;0.20;0.20;;;;;;;;;;6088935;23;20029;-87
2022/07/19 15:45:25;;;;;;;0.20;0.10;;;;;;;;;;6093784;23;20018;-88
2022/07/19 15:47:51;;;;;;;0.20;0.10;;;;;;;;;;6177903;23;20078;-88
2022/07/19 15:50:20;;;;;;;0.20;0.10;;;;;;;;;;6130442;23;20025;-86
2022/07/19 15:52:52;;;;;;;0.20;0.10;;;;;;;;;;6156719;23;20018;-87
2022/07/19 15:55:25;;;;;;;0.30;0.20;;;;;;;;;;6180164;23;20012;-86
2022/07/19 15:58:17;;;;;;;0.32;0.32;;;;;;;;;;6181810;23;20017;-88
2022/07/19 16:01:12;;;;;;;;;;;;;;;;;;;;;
2022/07/19 16:04:14;;;;;;;0.20;0.20;;;;;;;;;;6183080;23;20028;-90
2022/07/19 16:07:05;;;;;;;;;;;;;;;;;;;;;
2022/07/19 16:17:47;;;;;;;0.20;0.10;;;;;;;;;;6226232;22;20108;-91
2022/07/19 16:23:30;;;;;;;0.20;0.10;;;;;;;;;;6204793;23;20040;-90
2022/07/19 16:25:59;;;;;;;0.20;0.10;;;;;;;;;;6130323;23;20453;-92
2022/07/19 16:28:26;;;;;;;0.20;0.20;;;;;;;;;;6132428;23;20349;-89
2022/07/19 16:30:58;;;;;;;0.20;0.10;;;;;;;;;;6162079;23;20414;-90
2022/07/19 16:33:30;;;;;;;0.20;0.10;;;;;;;;;;6132463;23;20077;-89
2022/07/19 16:35:58;;;;;;;0.20;0.10;;;;;;;;;;6130843;23;20733;-89
2022/07/19 16:38:25;;;;;;;0.88;0.65;;;;;;;;;;6131412;23;20013;-90
2022/07/19 16:40:51;;;;;;;0.20;0.10;;;;;;;;;;6131644;23;20024;-89
2022/07/19 16:43:20;;;;;;;0.20;0.10;;;;;;;;;;6132409;23;20067;-89
2022/07/19 16:45:47;;;;;;;0.20;0.10;;;;;;;;;;6155204;23;20073;-90
2022/07/19 16:48:21;;;;;;;0.20;0.10;;;;;;;;;;6129205;23;20064;-90
2022/07/19 16:50:53;;;;;;;0.20;0.10;;;;;;;;;;6130800;23;20009;-92
2022/07/19 16:53:23;;;;;;;0.20;0.10;;;;;;;;;;6130750;23;20790;-90
2022/07/19 16:55:49;;;;;;;0.20;0.10;;;;;;;;;;6130434;23;20032;-90
2022/07/19 16:58:17;;;;;;;0.20;0.10;;;;;;;;;;6130334;23;20013;-89
2022/07/19 17:00:43;;;;;;;0.20;0.10;;;;;;;;;;6130328;23;20020;-90
2022/07/19 17:03:12;;;;;;;0.20;0.10;;;;;;;;;;6129848;23;20020;-90
2022/07/19 17:05:43;;;;;;;0.20;0.10;;;;;;;;;;6130752;23;20036;-90
2022/07/19 17:08:10;;;;;;;0.20;0.10;;;;;;;;;;6129954;23;20041;-90
2022/07/19 17:10:36;;;;;;;0.20;0.10;;;;;;;;;;6129454;23;20812;-91
2022/07/19 17:13:02;;;;;;;0.20;0.20;;;;;;;;;;6130617;23;20017;-89
2022/07/19 17:15:34;;;;;;;0.20;0.10;;;;;;;;;;6131155;23;20089;-90
2022/07/19 17:18:01;;;;;;;0.20;0.17;;;;;;;;;;6131323;23;20021;-89
2022/07/19 17:20:36;;;;;;;0.20;0.10;;;;;;;;;;6130870;23;20013;-89
2022/07/19 17:23:05;;;;;;;0.20;0.20;;;;;;;;;;6130859;23;20035;-89
2022/07/19 17:25:31;;;;;;;0.20;0.10;;;;;;;;;;6136120;23;20017;-92
2022/07/19 17:27:57;;;;;;;0.20;0.10;;;;;;;;;;6137952;23;20073;-90
2022/07/19 17:30:23;;;;;;;0.20;0.10;;;;;;;;;;6141277;23;20017;-91
2022/07/19 17:32:50;;;;;;;0.20;0.10;;;;;;;;;;6137947;23;20013;-91
2022/07/19 17:35:21;;;;;;;0.20;0.10;;;;;;;;;;6139743;23;20044;-89
2022/07/19 17:37:50;;;;;;;0.20;0.10;;;;;;;;;;6141446;23;20012;-90
2022/07/19 17:40:22;;;;;;;0.20;0.20;;;;;;;;;;6142260;23;20100;-89
2022/07/19 17:42:51;;;;;;;0.20;0.10;;;;;;;;;;6141330;23;20040;-90
2022/07/19 17:45:17;;;;;;;0.20;0.10;;;;;;;;;;6144741;23;20288;-91
2022/07/19 17:47:46;;;;;;;0.20;0.20;;;;;;;;;;6140976;23;20017;-90
2022/07/19 17:50:12;;;;;;;0.20;0.10;;;;;;;;;;6141132;23;20092;-90
2022/07/19 17:52:51;;;;;;;0.20;0.10;;;;;;;;;;6129284;23;20520;-89
2022/07/19 17:55:17;;;;;;;0.20;0.10;;;;;;;;;;6130134;23;20044;-89
2022/07/19 17:57:43;;;;;;;0.20;0.10;;;;;;;;;;6130658;23;20025;-89
2022/07/19 18:00:10;;;;;;;0.20;0.15;;;;;;;;;;6131324;23;20467;-90
2022/07/19 18:02:39;;;;;;;0.20;0.10;;;;;;;;;;6129281;23;20061;-89
2022/07/19 18:05:05;;;;;;;0.20;0.10;;;;;;;;;;6133046;23;20335;-88
2022/07/19 18:07:41;;;;;;;0.20;0.10;;;;;;;;;;6127909;23;20024;-89
2022/07/19 18:10:20;;;;;;;0.30;0.20;;;;;;;;;;6128821;23;20465;-92
2022/07/19 18:13:31;;;;;;;;;;;;;;;;;;;;;
2022/07/19 18:16:10;;;;;;;0.30;0.13;;;;;;;;;;6178255;23;20036;-93
2022/07/19 18:18:57;;;;;;;0.20;0.10;;;;;;;;;;6156548;23;20053;-92
2022/07/19 18:28:04;;;;;;;0.20;0.10;;;;;;;;;;6120948;23;20025;-93
2022/07/19 18:31:16;;;;;;;;;;;;;;;;;;;;;
2022/07/19 18:47:09;;;;;;;0.20;0.10;;;;;;;;;;6249052;22;20070;-93
2022/07/19 18:52:54;;;;;;;0.20;0.10;;;;;;;;;;6207809;23;20024;-91
2022/07/19 18:55:35;;;;;;;0.20;0.10;;;;;;;;;;6198749;23;20052;-91
2022/07/19 18:58:08;;;;;;;0.20;0.10;;;;;;;;;;6195589;23;20408;-91
2022/07/19 19:00:50;;;;;;;;;;;;;;;;;;;;;
2022/07/19 19:03:32;;;;;;;0.30;0.20;;;;;;;;;;6191277;23;20005;-91
2022/07/19 19:06:32;;;;;;;0.20;0.10;;;;;;;;;;6141211;23;20013;-92
2022/07/19 19:09:20;;;;;;;0.20;0.10;;;;;;;;;;6139821;23;20036;-92
2022/07/19 19:12:00;;;;;;;0.20;0.10;;;;;;;;;;6161456;23;20481;-91
2022/07/19 19:15:39;;;;;;;;;;;;;;;;;;;;;
2022/07/19 19:17:35;;;;;;;0.20;0.10;;;;;;;;;;6132062;23;20067;-92
2022/07/19 19:20:16;;;;;;;0.20;0.20;;;;;;;;;;6136228;23;20060;-91
2022/07/19 19:26:23;;;;;;;0.20;0.10;;;;;;;;;;6164422;23;20180;-93
2022/07/19 19:29:01;;;;;;;0.20;0.10;;;;;;;;;;6138114;23;20017;-91
2022/07/19 19:31:27;;;;;;;0.20;0.10;;;;;;;;;;6137181;23;20532;-91
2022/07/19 19:37:09;;;;;;;0.20;0.20;;;;;;;;;;6180833;23;20357;-90
2022/07/19 19:39:38;;;;;;;0.20;0.20;;;;;;;;;;6193737;23;20016;-92
2022/07/19 19:42:28;;;;;;;0.20;0.20;;;;;;;;;;6197860;23;20020;-91
2022/07/19 19:44:54;;;;;;;0.20;0.10;;;;;;;;;;6171096;22;20016;-92
2022/07/19 19:47:29;;;;;;;0.20;0.10;;;;;;;;;;6187838;23;20013;-91
2022/07/19 19:50:29;;;;;;;0.20;0.10;;;;;;;;;;6200186;23;20043;-91
2022/07/19 19:52:57;;;;;;;0.20;0.10;;;;;;;;;;6193974;23;20092;-92
2022/07/19 19:55:29;;;;;;;0.20;0.10;;;;;;;;;;6191750;23;20009;-91
2022/07/19 19:58:22;;;;;;;0.20;0.10;;;;;;;;;;6191772;23;20020;-92
2022/07/19 20:00:48;;;;;;;0.20;0.10;;;;;;;;;;6178598;23;20072;-91
2022/07/19 20:03:23;;;;;;;0.20;0.10;;;;;;;;;;6186913;23;20020;-91
2022/07/19 20:05:58;;;;;;;0.20;0.10;;;;;;;;;;6188670;23;20020;-91
2022/07/19 20:08:44;;;;;;;0.20;0.10;;;;;;;;;;6186360;23;20065;-92
2022/07/19 20:11:28;;;;;;;0.20;0.13;;;;;;;;;;6187607;23;20020;-91
2022/07/19 20:14:03;;;;;;;0.20;0.10;;;;;;;;;;6186686;23;20067;-91
2022/07/19 20:16:34;;;;;;;0.20;0.10;;;;;;;;;;6187766;23;20031;-90
2022/07/19 20:19:09;;;;;;;0.20;0.10;;;;;;;;;;6189419;23;20017;-91
2022/07/19 20:21:43;;;;;;;0.20;0.10;;;;;;;;;;6160976;23;20051;-91
2022/07/19 20:24:30;;;;;;;0.20;0.10;;;;;;;;;;6192618;23;20016;-91
2022/07/19 20:27:05;;;;;;;0.30;0.15;;;;;;;;;;6160906;23;20104;-91
2022/07/19 20:29:52;;;;;;;0.20;0.10;;;;;;;;;;6185113;23;20051;-92
2022/07/19 20:32:21;;;;;;;0.20;0.10;;;;;;;;;;6183028;23;20012;-91
2022/07/19 20:35:01;;;;;;;0.20;0.10;;;;;;;;;;6182801;23;20027;-91
2022/07/19 20:37:27;;;;;;;0.20;0.10;;;;;;;;;;6158005;23;20012;-91
2022/07/19 20:40:23;;;;;;;0.20;0.10;;;;;;;;;;6187359;23;20356;-91
2022/07/19 20:49:33;;;;;;;0.20;0.10;;;;;;;;;;6212798;23;20031;-92
2022/07/19 20:51:59;;;;;;;;;;;;;;;;;;6164142;23;20012;-92
2022/07/19 21:04:54;;;;;;;0.20;0.10;;;;;;;;;;5976627;23;20084;-90
2022/07/19 21:07:30;;;;;;;0.20;0.10;;;;;;;;;;6056741;23;20068;-89
2022/07/19 21:17:06;;;;;;;0.20;0.10;;;;;;;;;;5976290;23;20084;-88
2022/07/19 21:22:58;;;;;;;0.20;0.10;;;;;;;;;;5945400;24;20028;-89
2022/07/19 21:25:35;;;;;;;0.20;0.20;;;;;;;;;;5956549;23;20022;-90
2022/07/19 21:28:34;;;;;;;0.20;0.13;;;;;;;;;;6012544;23;20034;-89
2022/07/19 22:30:33;;;;;;;;;;;;;;;;;;;;;
2022/07/19 22:41:13;;;;;;;0.20;0.10;;;;;;;;;;6238776;23;20523;-88
2022/07/19 22:56:44;;;;;;;;;;;;;;;;;;6238499;23;20101;-89
2022/07/19 23:19:18;;;;;;;0.20;0.10;;;;;;;;;;6016138;22;20027;-86
2022/07/19 23:21:44;;;;;;;0.20;0.10;;;;;;;;;;6187325;23;20027;-87
2022/07/19 23:24:10;;;;;;;0.20;0.10;;;;;;;;;;6162694;23;20012;-87
2022/07/19 23:26:36;;;;;;;0.20;0.10;;;;;;;;;;6163841;23;20016;-87
2022/07/19 23:29:02;;;;;;;0.20;0.10;;;;;;;;;;6188363;23;20087;-86
2022/07/19 23:31:28;;;;;;;0.20;0.10;;;;;;;;;;6187271;23;20095;-87
2022/07/19 23:33:54;;;;;;;0.20;0.10;;;;;;;;;;6189585;23;20065;-87
2022/07/19 23:36:20;;;;;;;0.20;0.10;;;;;;;;;;6188287;23;20019;-87